MIA weather

Miami International Airport
Miami, Florida, United States

Public forecast

Using degrees Fahrenheit for public forecast. Weather courtesy of forecast.io.

METAR (pilot weather report)

Retrieved 2018/04/22 09:31 UTC (28 minutes ago):

KMIA 220931Z 11008KT 10SM FEW018 SCT031 BKN085 24/23 A3004 RMK AO2 LTG DSNT NW T02390228 $

TAF (pilot weather forecast)

Retrieved 2018/04/22 06:42 UTC (3 hours ago):

TAF KMIA 220540Z 2206/2312 10010KT P6SM VCSH SCT020 BKN035 TEMPO 2206/2209 VRB15KT 4SM SHRA SCT015 BKN025 FM221400 11014KT P6SM VCSH SCT025 BKN045 FM222200 11011KT P6SM VCSH SCT025 BKN035 FM230600 11009KT P6SM VCSH SCT020 BKN035